Strona główna
METAR-TAF:

METAR-TAF

Lotnisko :

East Hampton Airport

East Hampton, Nowy Jork, Stany Zjednoczone

Szerokość geograficzna: 40-57-34N, Długość geograficzna: 072-15-07W, wysokość: 17 m

Aktualna obserwacja pogody

Raport powstał 32 minut temu, godzina 06:15 UTC
Wiatr 8 kt od południowo-południowy zachód
Temperatura 8°C
Wilgotność 93%
Ciśnienie 1015 hPa
Widzialność: 11.3 km
Rozproszone chmury na wysokości 2700 ft
Rozproszone chmury na wysokości 4400 ft
Zachmurzenie całkowite na wysokości 6500 ft

METAR: KHTO 240615Z AUTO 20008KT 7SM SCT027 SCT044 OVC065 08/07 A2996 RMK AO2 T00830073

czas: 01:47 (06:47 UTC)


TAF: brakujący

Obserwacja i prognoza pogody dla ponad 4000 lotnisk (raport METAR i TAF).

Dostępne stacje oznaczono żółtymi i czerwonymi punktami na mapie.

Najedź kursorem aby zobaczyć nazwę stacji.

Kliknij aby zobaczyć obserwacje i prognozy pogody.

Aby zmienić mapę: kliknij na zielony przycisk z czarnym krzyżykiem, aby powiększyć; na zielony przycisk z myślnikiem, aby pomniejszyć; na zielone strzałki, aby przejść do map sąsiednich.


METAR-TAF: